Time;durP1;ratioP1;P1;durP2;ratioP2;P2;SDS_P1;SDS_P2;PMS_P1;PMS_P2;Temp;Humidity;BMP_temperature;BMP_pressure;BME280_temperature;BME280_humidity;BME280_pressure;Samples;Min_cycle;Max_cycle;Signal;HPM_P1;HPM_P2
2023/09/23 00:01:32;;;;;;;5.88;4.18;;;11.90;99.90;;;;;;5018276;28;20171;-58
2023/09/23 00:03:58;;;;;;;7.18;4.03;;;11.90;99.90;;;;;;5035998;28;20515;-59
2023/09/23 00:06:24;;;;;;;5.13;4.00;;;12.00;99.90;;;;;;5035488;28;20183;-58
2023/09/23 00:08:50;;;;;;;6.53;4.03;;;11.90;99.90;;;;;;5035550;28;20191;-59
2023/09/23 00:11:16;;;;;;;4.70;3.90;;;12.00;99.90;;;;;;5035595;28;20205;-58
2023/09/23 00:13:43;;;;;;;7.88;4.38;;;11.90;99.90;;;;;;5035367;28;20550;-59
2023/09/23 00:16:21;;;;;;;6.75;4.95;;;11.90;99.90;;;;;;5035766;28;20176;-60
2023/09/23 00:18:47;;;;;;;6.70;4.53;;;11.90;99.90;;;;;;5017892;28;20191;-59
2023/09/23 00:21:13;;;;;;;5.30;4.70;;;11.90;99.90;;;;;;5035614;28;20179;-59
2023/09/23 00:23:39;;;;;;;5.00;4.50;;;11.90;99.90;;;;;;5035508;28;20209;-60
2023/09/23 00:26:06;;;;;;;5.78;4.50;;;11.90;99.90;;;;;;5035367;28;20673;-58
2023/09/23 00:28:33;;;;;;;5.05;4.57;;;11.90;99.90;;;;;;5017357;28;20205;-59
2023/09/23 00:31:18;;;;;;;7.70;4.82;;;11.90;99.90;;;;;;5035003;28;20257;-59
2023/09/23 00:33:45;;;;;;;5.95;4.30;;;11.90;99.90;;;;;;5035461;28;20190;-59
2023/09/23 00:36:11;;;;;;;6.85;4.60;;;11.90;99.90;;;;;;5034981;28;20171;-59
2023/09/23 00:38:37;;;;;;;5.45;4.00;;;11.90;99.90;;;;;;5034765;28;20191;-59
2023/09/23 00:41:08;;;;;;;5.82;4.95;;;11.90;99.90;;;;;;5034860;28;20179;-58
2023/09/23 00:43:34;;;;;;;4.93;4.22;;;11.90;99.90;;;;;;5035025;28;20236;-58
2023/09/23 00:46:03;;;;;;;5.03;4.45;;;11.90;99.90;;;;;;5016266;28;20270;-59
2023/09/23 00:48:36;;;;;;;7.88;5.22;;;12.00;99.90;;;;;;5034597;28;20309;-60
2023/09/23 00:51:03;;;;;;;6.72;5.15;;;11.90;99.90;;;;;;5034966;28;20536;-59
2023/09/23 00:53:30;;;;;;;6.22;4.68;;;12.00;99.90;;;;;;5034504;28;20167;-59
2023/09/23 00:56:00;;;;;;;7.32;5.38;;;11.90;99.90;;;;;;5034881;28;20182;-61
2023/09/23 00:58:26;;;;;;;7.65;5.70;;;11.90;99.90;;;;;;5016773;28;20195;-59
2023/09/23 01:00:54;;;;;;;7.03;5.70;;;11.90;99.90;;;;;;5034663;28;20520;-59
2023/09/23 01:03:20;;;;;;;7.68;5.95;;;11.90;99.90;;;;;;5034438;28;20551;-59
2023/09/23 01:05:48;;;;;;;6.53;5.80;;;11.90;99.90;;;;;;5016715;28;20203;-59
2023/09/23 01:08:20;;;;;;;8.50;5.95;;;11.90;99.90;;;;;;5034077;28;20289;-59
2023/09/23 01:10:49;;;;;;;7.80;6.10;;;11.90;99.90;;;;;;5034249;28;20194;-60
2023/09/23 01:13:19;;;;;;;10.60;6.22;;;11.90;99.90;;;;;;5016406;28;20237;-62
2023/09/23 01:15:46;;;;;;;9.27;6.63;;;11.80;99.90;;;;;;5034250;28;20167;-60
2023/09/23 01:18:13;;;;;;;9.57;6.47;;;11.90;99.90;;;;;;5016313;28;20245;-59
2023/09/23 01:20:42;;;;;;;8.20;6.47;;;11.90;99.90;;;;;;5034237;28;20262;-63
2023/09/23 01:23:12;;;;;;;9.18;6.78;;;11.90;99.90;;;;;;5033944;28;20187;-60
2023/09/23 01:25:38;;;;;;;8.68;6.65;;;11.90;99.90;;;;;;5033970;28;20183;-62
2023/09/23 01:28:11;;;;;;;8.40;7.15;;;11.90;99.90;;;;;;5033903;28;20256;-62
2023/09/23 01:30:37;;;;;;;8.95;6.45;;;11.90;99.90;;;;;;5034149;28;20191;-61
2023/09/23 01:33:07;;;;;;;7.65;6.10;;;11.90;99.90;;;;;;5034303;28;20705;-63
2023/09/23 01:35:34;;;;;;;7.35;5.47;;;11.90;99.90;;;;;;5034442;28;20616;-62
2023/09/23 01:38:02;;;;;;;7.90;5.88;;;11.90;99.90;;;;;;5033638;28;20659;-61
2023/09/23 01:40:30;;;;;;;8.23;5.75;;;11.90;99.90;;;;;;5016005;28;20183;-61
2023/09/23 01:42:57;;;;;;;5.63;5.10;;;11.90;99.90;;;;;;5033821;28;20183;-62
2023/09/23 01:45:26;;;;;;;6.05;5.22;;;11.90;99.90;;;;;;5033698;28;20177;-62
2023/09/23 01:47:55;;;;;;;5.40;4.55;;;11.90;99.90;;;;;;5015989;28;20290;-62
2023/09/23 01:50:22;;;;;;;5.68;4.78;;;11.90;99.90;;;;;;5033830;28;20195;-63
2023/09/23 01:52:47;;;;;;;6.90;5.05;;;11.80;99.90;;;;;;5033500;28;20713;-62
2023/09/23 01:55:16;;;;;;;5.35;4.85;;;11.70;99.90;;;;;;5033519;28;20222;-63
2023/09/23 01:57:42;;;;;;;6.25;4.63;;;11.70;99.90;;;;;;5032595;28;20637;-62
2023/09/23 02:00:15;;;;;;;5.90;4.30;;;11.70;99.90;;;;;;5015938;28;20179;-60
2023/09/23 02:02:42;;;;;;;5.63;4.72;;;11.60;99.90;;;;;;5034099;28;20159;-61
2023/09/23 02:05:08;;;;;;;5.30;4.50;;;11.50;99.90;;;;;;5033729;28;20205;-59
2023/09/23 02:07:34;;;;;;;5.00;4.50;;;11.50;99.90;;;;;;5033175;28;20180;-59
2023/09/23 02:10:00;;;;;;;7.83;4.60;;;11.50;99.90;;;;;;5033707;28;20207;-62
2023/09/23 02:12:26;;;;;;;5.25;4.40;;;11.50;99.90;;;;;;5033746;28;20194;-59
2023/09/23 02:14:53;;;;;;;6.03;4.57;;;11.40;99.90;;;;;;5016044;28;20179;-59
2023/09/23 02:17:22;;;;;;;5.00;4.50;;;11.40;99.90;;;;;;5015943;28;20221;-60
2023/09/23 02:19:50;;;;;;;4.78;4.30;;;11.40;99.90;;;;;;5033615;28;20203;-59
2023/09/23 02:22:18;;;;;;;4.53;4.10;;;11.30;99.90;;;;;;5033284;28;20175;-60
2023/09/23 02:24:44;;;;;;;4.60;4.20;;;11.30;99.90;;;;;;5033310;28;20534;-62
2023/09/23 02:27:10;;;;;;;4.97;4.47;;;11.40;99.90;;;;;;5033225;28;20186;-61
2023/09/23 02:29:36;;;;;;;6.50;4.25;;;11.30;99.90;;;;;;5033008;28;20659;-60
2023/09/23 02:32:02;;;;;;;4.47;4.07;;;11.20;99.90;;;;;;5033220;28;20175;-62
2023/09/23 02:34:30;;;;;;;5.65;4.85;;;11.10;99.90;;;;;;5033454;28;20183;-61
2023/09/23 02:36:56;;;;;;;6.00;4.88;;;11.10;99.90;;;;;;5033097;28;20635;-62
2023/09/23 02:39:22;;;;;;;5.30;4.80;;;11.20;99.90;;;;;;5033122;28;20194;-60
2023/09/23 02:41:49;;;;;;;7.57;5.37;;;11.20;99.90;;;;;;5015894;28;20554;-60
2023/09/23 02:44:19;;;;;;;6.63;5.50;;;11.20;99.90;;;;;;5015441;28;20209;-62
2023/09/23 02:46:48;;;;;;;5.87;5.00;;;11.10;99.90;;;;;;5033014;28;20221;-62
2023/09/23 02:49:14;;;;;;;6.47;5.77;;;11.10;99.90;;;;;;5015291;28;20210;-61
2023/09/23 02:51:44;;;;;;;10.45;6.50;;;11.10;99.90;;;;;;5032666;28;20206;-60
2023/09/23 02:54:13;;;;;;;7.40;5.63;;;11.10;99.90;;;;;;5032864;28;20534;-62
2023/09/23 02:56:39;;;;;;;8.75;6.07;;;11.10;99.90;;;;;;5032982;28;20206;-62
2023/09/23 02:59:13;;;;;;;8.15;6.38;;;11.20;99.90;;;;;;5033027;28;20571;-62
2023/09/23 03:01:51;;;;;;;7.13;6.05;;;11.20;99.90;;;;;;5033177;28;20251;-62
2023/09/23 03:04:17;;;;;;;6.77;5.93;;;11.20;99.90;;;;;;5033255;28;20155;-62
2023/09/23 03:06:49;;;;;;;8.75;7.07;;;11.20;99.90;;;;;;5032778;28;20214;-60
2023/09/23 03:09:31;;;;;;;7.67;6.87;;;11.20;99.90;;;;;;5034900;28;20275;-62
2023/09/23 03:11:57;;;;;;;8.70;7.47;;;11.20;99.90;;;;;;5036639;28;20156;-62
2023/09/23 03:14:28;;;;;;;9.70;7.63;;;11.20;99.90;;;;;;5036442;28;20175;-63
2023/09/23 03:16:57;;;;;;;9.20;7.30;;;11.20;99.90;;;;;;5036763;28;20155;-62
2023/09/23 03:19:26;;;;;;;12.27;8.10;;;11.20;99.90;;;;;;5036342;28;20671;-61
2023/09/23 03:21:56;;;;;;;13.05;7.97;;;11.30;99.90;;;;;;5036644;28;20651;-61
2023/09/23 03:24:24;;;;;;;9.97;7.47;;;11.30;99.90;;;;;;5036306;28;20549;-59
2023/09/23 03:26:54;;;;;;;8.50;7.70;;;11.30;99.90;;;;;;5036602;28;20254;-59
2023/09/23 03:29:20;;;;;;;9.07;7.17;;;11.30;99.90;;;;;;5018372;28;20199;-59
2023/09/23 03:31:46;;;;;;;13.27;8.20;;;11.30;99.90;;;;;;5036334;28;20261;-59
2023/09/23 03:34:15;;;;;;;9.40;7.43;;;11.30;99.90;;;;;;5036629;28;20152;-59
2023/09/23 03:36:41;;;;;;;15.43;8.85;;;11.30;99.90;;;;;;5035815;28;20245;-59
2023/09/23 03:39:08;;;;;;;11.48;8.75;;;11.40;99.90;;;;;;5036077;28;20553;-60
2023/09/23 03:41:38;;;;;;;11.00;7.90;;;11.40;99.90;;;;;;5036177;28;20210;-60
2023/09/23 03:44:05;;;;;;;15.73;7.63;;;11.50;99.90;;;;;;5035966;28;20178;-59
2023/09/23 03:46:31;;;;;;;13.48;7.80;;;11.60;99.90;;;;;;5035801;28;20182;-59
2023/09/23 03:48:57;;;;;;;14.25;8.25;;;11.60;99.90;;;;;;5036010;28;20225;-60
2023/09/23 03:51:24;;;;;;;9.40;7.70;;;11.60;99.90;;;;;;5018029;28;20234;-59
2023/09/23 03:53:51;;;;;;;9.27;7.70;;;11.60;99.90;;;;;;5035463;28;20176;-59
2023/09/23 03:56:19;;;;;;;16.00;7.95;;;11.60;99.90;;;;;;5017984;28;20250;-60
2023/09/23 03:58:45;;;;;;;12.52;7.28;;;11.70;99.90;;;;;;5035657;28;20221;-59
2023/09/23 04:01:13;;;;;;;9.82;7.40;;;11.60;99.90;;;;;;5035657;28;20265;-59
2023/09/23 04:03:43;;;;;;;9.50;8.38;;;11.70;99.90;;;;;;5035604;28;20546;-61
2023/09/23 04:06:08;;;;;;;11.90;7.95;;;11.70;99.90;;;;;;5017691;28;20210;-59
2023/09/23 04:08:34;;;;;;;11.00;7.20;;;11.70;99.90;;;;;;5035227;28;20199;-61
2023/09/23 04:11:07;;;;;;;10.38;7.30;;;11.70;99.90;;;;;;5035420;28;20682;-61
2023/09/23 04:13:33;;;;;;;11.02;7.22;;;11.70;99.90;;;;;;5035414;28;20237;-59
2023/09/23 04:16:02;;;;;;;16.80;8.88;;;11.70;99.90;;;;;;5035620;28;20171;-58
2023/09/23 04:18:29;;;;;;;12.02;8.07;;;11.80;99.90;;;;;;5035274;28;20731;-58
2023/09/23 04:20:55;;;;;;;11.05;7.50;;;11.80;99.90;;;;;;5034627;28;20266;-59
2023/09/23 04:23:20;;;;;;;14.05;7.90;;;11.80;99.90;;;;;;5035103;28;20203;-59
2023/09/23 04:25:49;;;;;;;10.35;8.05;;;11.80;99.90;;;;;;5035371;28;20657;-59
2023/09/23 04:28:16;;;;;;;11.95;7.13;;;11.80;99.90;;;;;;5035006;28;20270;-59
2023/09/23 04:30:41;;;;;;;13.55;6.95;;;11.80;99.90;;;;;;5035291;28;20202;-58
2023/09/23 04:33:07;;;;;;;9.35;7.53;;;11.70;99.90;;;;;;5035016;28;20175;-59
2023/09/23 04:35:34;;;;;;;9.52;7.65;;;11.80;99.90;;;;;;5034986;28;20167;-59
2023/09/23 04:38:00;;;;;;;12.80;7.25;;;11.70;99.90;;;;;;5016847;28;20191;-59
2023/09/23 04:40:26;;;;;;;10.68;8.23;;;11.70;99.90;;;;;;5034857;28;20551;-59
2023/09/23 04:42:52;;;;;;;8.90;6.75;;;11.70;99.90;;;;;;5034767;28;20190;-59
2023/09/23 04:45:20;;;;;;;12.13;6.57;;;11.60;99.90;;;;;;5016945;28;20214;-59
2023/09/23 04:47:50;;;;;;;9.00;6.93;;;11.60;99.90;;;;;;5034905;28;20257;-59
2023/09/23 04:50:22;;;;;;;9.20;6.65;;;11.60;99.90;;;;;;5034870;28;20536;-59
2023/09/23 04:52:50;;;;;;;9.55;6.80;;;11.60;99.90;;;;;;5034546;28;20155;-59
2023/09/23 04:55:16;;;;;;;17.52;7.90;;;11.60;99.90;;;;;;5034443;28;20183;-60
2023/09/23 04:57:42;;;;;;;9.82;6.75;;;11.60;99.90;;;;;;5016580;28;20291;-58
2023/09/23 05:00:18;;;;;;;9.35;6.28;;;11.60;99.90;;;;;;5034532;28;20253;-59
2023/09/23 05:02:47;;;;;;;15.98;7.50;;;11.60;99.90;;;;;;5034419;28;20155;-60
2023/09/23 05:05:13;;;;;;;11.35;6.50;;;11.60;99.90;;;;;;5034338;28;20171;-60
2023/09/23 05:07:39;;;;;;;7.03;6.03;;;11.70;99.90;;;;;;5034031;28;20256;-61
2023/09/23 05:10:07;;;;;;;7.55;6.53;;;11.70;99.90;;;;;;5034540;28;20199;-59
2023/09/23 05:12:33;;;;;;;8.05;5.65;;;11.70;99.90;;;;;;5034182;28;20678;-59
2023/09/23 05:15:00;;;;;;;8.00;5.80;;;11.70;99.90;;;;;;5034172;28;20163;-59
2023/09/23 05:17:28;;;;;;;10.43;5.40;;;11.70;99.90;;;;;;5034074;28;20175;-59
2023/09/23 05:19:54;;;;;;;13.52;6.40;;;11.70;99.90;;;;;;5034071;28;20163;-59
2023/09/23 05:22:20;;;;;;;5.88;5.35;;;11.80;99.90;;;;;;5016075;28;20177;-59
2023/09/23 05:24:50;;;;;;;7.30;5.25;;;11.80;99.90;;;;;;5016351;28;20182;-59
2023/09/23 05:27:16;;;;;;;7.57;5.30;;;11.80;99.90;;;;;;5016307;28;20167;-60
2023/09/23 05:29:44;;;;;;;6.55;4.90;;;11.80;99.90;;;;;;5016094;28;20197;-59
2023/09/23 05:32:11;;;;;;;10.82;5.85;;;11.90;99.90;;;;;;5033769;28;20171;-59
2023/09/23 05:34:40;;;;;;;9.30;6.25;;;11.90;99.90;;;;;;5016262;28;20206;-63
2023/09/23 05:37:11;;;;;;;9.38;5.38;;;11.90;99.90;;;;;;5033531;28;20199;-62
2023/09/23 05:39:40;;;;;;;6.45;5.80;;;11.90;99.90;;;;;;5033783;28;20191;-61
2023/09/23 05:42:05;;;;;;;6.63;5.88;;;11.90;99.90;;;;;;5033893;28;20179;-61
2023/09/23 05:44:31;;;;;;;8.48;5.55;;;12.00;99.90;;;;;;5033657;28;20612;-61
2023/09/23 05:46:57;;;;;;;9.25;5.57;;;12.00;99.90;;;;;;5033951;28;20155;-61
2023/09/23 05:49:23;;;;;;;9.55;5.95;;;12.00;99.90;;;;;;5033590;28;20559;-61
2023/09/23 05:51:52;;;;;;;7.95;5.43;;;12.00;99.90;;;;;;5033671;28;20195;-62
2023/09/23 05:54:19;;;;;;;7.97;5.68;;;12.00;99.90;;;;;;5015438;28;20225;-61
2023/09/23 05:56:45;;;;;;;10.48;6.18;;;12.00;99.90;;;;;;5033539;28;20195;-62
2023/09/23 05:59:11;;;;;;;9.75;5.38;;;12.10;99.90;;;;;;5033462;28;20245;-61
2023/09/23 06:01:40;;;;;;;11.95;6.75;;;12.10;99.90;;;;;;5033455;28;20313;-62
2023/09/23 06:04:09;;;;;;;9.00;5.50;;;12.10;99.90;;;;;;5033376;28;20178;-60
2023/09/23 06:06:38;;;;;;;9.48;5.82;;;12.10;99.90;;;;;;5033419;28;20202;-60
2023/09/23 06:09:07;;;;;;;8.93;6.22;;;12.10;99.90;;;;;;5033245;28;20533;-61
2023/09/23 06:11:33;;;;;;;11.55;6.47;;;12.10;99.90;;;;;;5015627;28;20294;-61
2023/09/23 06:13:59;;;;;;;7.47;6.13;;;12.10;99.90;;;;;;5033220;28;20186;-59
2023/09/23 06:16:25;;;;;;;7.05;5.60;;;12.20;99.90;;;;;;5033361;28;20167;-60
2023/09/23 06:18:51;;;;;;;13.25;6.88;;;12.20;99.90;;;;;;5015553;28;20194;-62
2023/09/23 06:21:18;;;;;;;8.95;6.07;;;12.20;99.90;;;;;;5033321;28;20239;-60
2023/09/23 06:23:44;;;;;;;11.65;6.20;;;12.20;99.90;;;;;;5033003;28;20202;-60
2023/09/23 06:26:10;;;;;;;13.23;6.30;;;12.20;99.90;;;;;;5033289;28;20297;-59
2023/09/23 06:28:36;;;;;;;7.45;6.10;;;12.30;99.90;;;;;;5033404;28;20662;-59
2023/09/23 06:31:03;;;;;;;12.23;6.30;;;12.30;99.90;;;;;;5033136;28;20221;-62
2023/09/23 06:33:32;;;;;;;8.60;5.93;;;12.40;99.90;;;;;;5033390;28;20178;-62
2023/09/23 06:36:04;;;;;;;10.43;6.28;;;12.50;99.90;;;;;;5033372;28;20243;-60
2023/09/23 06:38:31;;;;;;;9.32;6.25;;;12.60;99.90;;;;;;5032978;28;20199;-62
2023/09/23 06:40:57;;;;;;;7.22;6.20;;;12.70;99.90;;;;;;5015405;28;20270;-62
2023/09/23 06:43:22;;;;;;;8.73;5.93;;;12.70;99.90;;;;;;5016113;28;20283;-61
2023/09/23 06:45:58;;;;;;;10.45;6.30;;;12.80;99.90;;;;;;5019268;28;20644;-61
2023/09/23 06:48:25;;;;;;;12.25;5.65;;;13.00;99.90;;;;;;5019178;28;20198;-61
2023/09/23 06:51:02;;;;;;;10.18;5.82;;;13.10;99.90;;;;;;5036917;28;20195;-62
2023/09/23 06:53:28;;;;;;;10.13;5.70;;;13.10;99.90;;;;;;5036521;28;20167;-62
2023/09/23 06:55:55;;;;;;;8.45;5.45;;;13.00;99.90;;;;;;5019115;28;20190;-61
2023/09/23 06:58:21;;;;;;;5.70;5.20;;;13.00;99.90;;;;;;5037017;28;20221;-61
2023/09/23 07:00:47;;;;;;;6.88;5.35;;;13.10;99.90;;;;;;5037142;28;20170;-62
2023/09/23 07:03:13;;;;;;;8.02;5.95;;;13.10;99.90;;;;;;5036724;28;20175;-61
2023/09/23 07:05:39;;;;;;;7.32;5.60;;;13.10;99.90;;;;;;5018838;28;20257;-62
2023/09/23 07:08:05;;;;;;;5.97;5.35;;;13.10;99.90;;;;;;5036497;28;20671;-63
2023/09/23 07:10:38;;;;;;;6.10;5.20;;;13.00;99.90;;;;;;5036823;28;20195;-62
2023/09/23 07:13:05;;;;;;;8.18;5.40;;;13.00;99.90;;;;;;5036468;28;20266;-62
2023/09/23 07:15:40;;;;;;;9.43;6.32;;;13.00;99.90;;;;;;5036447;28;20172;-62
2023/09/23 07:18:07;;;;;;;9.93;5.70;;;12.90;99.90;;;;;;5018726;28;20191;-62
2023/09/23 07:20:33;;;;;;;8.13;6.07;;;13.00;99.90;;;;;;5036439;28;20536;-62
2023/09/23 07:22:59;;;;;;;8.30;6.45;;;13.00;99.90;;;;;;5036022;28;20179;-62
2023/09/23 07:25:26;;;;;;;6.72;6.03;;;13.00;99.90;;;;;;5036540;28;20226;-62
2023/09/23 07:27:53;;;;;;;12.50;6.78;;;13.00;99.90;;;;;;5036270;28;20191;-62
2023/09/23 07:30:19;;;;;;;8.95;6.30;;;13.00;99.90;;;;;;5036679;28;20198;-62
2023/09/23 07:32:45;;;;;;;9.18;6.80;;;13.00;99.90;;;;;;5036294;28;20175;-62
2023/09/23 07:35:10;;;;;;;10.18;6.30;;;13.00;99.90;;;;;;5036280;28;20175;-61
2023/09/23 07:37:36;;;;;;;10.48;6.90;;;13.00;99.90;;;;;;5036309;28;20501;-62
2023/09/23 07:40:02;;;;;;;7.93;6.63;;;13.00;99.90;;;;;;5036139;28;20202;-62
2023/09/23 07:42:29;;;;;;;10.88;6.30;;;13.10;99.90;;;;;;5036406;28;20183;-62
2023/09/23 07:44:55;;;;;;;9.00;6.60;;;13.20;99.90;;;;;;5036374;28;20179;-62
2023/09/23 07:47:20;;;;;;;11.63;7.13;;;13.20;99.90;;;;;;5036127;28;20198;-61
2023/09/23 07:49:46;;;;;;;9.70;6.50;;;13.20;99.90;;;;;;5035926;28;20573;-62
2023/09/23 07:52:12;;;;;;;12.30;6.22;;;13.10;99.90;;;;;;5035950;28;20546;-63
2023/09/23 07:54:38;;;;;;;7.65;5.93;;;13.20;99.90;;;;;;5016767;28;20191;-61
2023/09/23 07:57:04;;;;;;;9.73;6.30;;;13.20;99.90;;;;;;5035867;28;20610;-63
2023/09/23 07:59:30;;;;;;;8.68;6.20;;;13.30;99.90;;;;;;5035762;28;20278;-62
2023/09/23 08:01:56;;;;;;;7.18;6.47;;;13.40;99.90;;;;;;5035995;28;20175;-62
2023/09/23 08:04:22;;;;;;;9.65;6.55;;;13.50;99.90;;;;;;5036130;28;20635;-62
2023/09/23 08:06:47;;;;;;;9.52;6.20;;;13.50;99.90;;;;;;5036075;28;20175;-62
2023/09/23 08:09:14;;;;;;;8.70;6.63;;;13.40;99.90;;;;;;5035671;28;20213;-61
2023/09/23 08:11:39;;;;;;;9.50;6.22;;;13.20;99.90;;;;;;5017771;28;20231;-61
2023/09/23 08:14:05;;;;;;;7.72;6.18;;;13.10;99.90;;;;;;5036363;28;20218;-59
2023/09/23 08:16:32;;;;;;;10.25;6.22;;;13.00;99.90;;;;;;5035811;28;20163;-59
2023/09/23 08:18:57;;;;;;;9.73;6.70;;;13.00;99.90;;;;;;5035729;28;20194;-61
2023/09/23 08:21:23;;;;;;;11.90;6.82;;;13.00;99.90;;;;;;5035518;28;20171;-61
2023/09/23 08:23:49;;;;;;;9.40;6.60;;;13.00;99.90;;;;;;5035146;28;20540;-59
2023/09/23 08:26:15;;;;;;;8.43;6.30;;;13.20;99.90;;;;;;5035715;28;20187;-60
2023/09/23 08:28:42;;;;;;;11.40;5.68;;;13.30;99.90;;;;;;5035484;28;20195;-60
2023/09/23 08:31:08;;;;;;;12.20;6.00;;;13.30;99.90;;;;;;5036474;28;20198;-59
2023/09/23 08:33:35;;;;;;;9.95;6.28;;;13.50;99.90;;;;;;5017786;28;20548;-60
2023/09/23 08:36:01;;;;;;;8.35;5.43;;;13.70;99.90;;;;;;5017404;28;20247;-61
2023/09/23 08:38:27;;;;;;;9.43;5.70;;;13.70;99.90;;;;;;5034859;28;20198;-60
2023/09/23 08:40:53;;;;;;;7.68;5.65;;;13.80;99.90;;;;;;5035957;28;20171;-62
2023/09/23 08:43:36;;;;;;;10.07;5.70;;;13.80;99.90;;;;;;5035131;28;20253;-62
2023/09/23 08:46:04;;;;;;;9.30;5.35;;;14.00;99.90;;;;;;5035263;28;20160;-60
2023/09/23 08:48:32;;;;;;;10.00;5.40;;;14.10;99.90;;;;;;5035108;28;20231;-60
2023/09/23 08:51:01;;;;;;;11.70;4.93;;;14.30;99.90;;;;;;5034620;28;20195;-60
2023/09/23 08:53:31;;;;;;;11.90;5.35;;;14.40;99.90;;;;;;5034296;28;20178;-62
2023/09/23 08:55:56;;;;;;;8.60;4.82;;;14.70;99.90;;;;;;5034983;28;20727;-61
2023/09/23 08:58:23;;;;;;;6.40;4.45;;;15.00;99.90;;;;;;5034507;28;20232;-61
2023/09/23 09:00:51;;;;;;;7.45;3.78;;;15.30;99.90;;;;;;5034492;28;20262;-62
2023/09/23 09:03:17;;;;;;;9.75;4.57;;;15.10;99.90;;;;;;5034423;28;20167;-62
2023/09/23 09:05:43;;;;;;;6.38;4.10;;;15.00;99.90;;;;;;5034265;28;20186;-61
2023/09/23 09:08:09;;;;;;;8.18;4.88;;;15.00;99.90;;;;;;5033984;28;20186;-62
2023/09/23 09:10:35;;;;;;;6.07;4.32;;;14.90;99.90;;;;;;5034274;28;20294;-62
2023/09/23 09:13:03;;;;;;;5.45;4.45;;;14.90;99.90;;;;;;5034278;28;20262;-62
2023/09/23 09:15:33;;;;;;;6.60;4.25;;;15.00;99.90;;;;;;5034539;28;20163;-62
2023/09/23 09:17:58;;;;;;;6.68;4.47;;;15.00;99.90;;;;;;5034391;28;20210;-62
2023/09/23 09:20:25;;;;;;;8.85;4.22;;;15.20;99.90;;;;;;5034157;28;20532;-62
2023/09/23 09:22:51;;;;;;;7.45;4.20;;;15.50;99.90;;;;;;5033870;28;20191;-62
2023/09/23 09:25:20;;;;;;;4.88;3.92;;;15.50;99.90;;;;;;5033970;28;20225;-62
2023/09/23 09:27:50;;;;;;;9.60;4.43;;;15.60;99.90;;;;;;5033869;28;20194;-62
2023/09/23 09:30:16;;;;;;;7.18;4.07;;;15.50;99.90;;;;;;5033864;28;20195;-62
2023/09/23 09:32:44;;;;;;;8.18;4.25;;;15.40;99.90;;;;;;5033984;28;20538;-62
2023/09/23 09:35:17;;;;;;;5.10;3.80;;;15.30;99.90;;;;;;5034420;28;20542;-62
2023/09/23 09:37:46;;;;;;;7.43;4.30;;;15.40;99.90;;;;;;5033868;28;20195;-62
2023/09/23 09:40:21;;;;;;;4.75;4.18;;;15.60;99.90;;;;;;5033828;28;20516;-63
2023/09/23 09:42:54;;;;;;;5.68;3.83;;;15.30;99.90;;;;;;5016187;28;20255;-63
2023/09/23 09:45:21;;;;;;;9.55;4.55;;;15.30;99.90;;;;;;5033721;28;20199;-62
2023/09/23 09:47:50;;;;;;;5.35;4.38;;;15.10;99.90;;;;;;5033769;28;20195;-63
2023/09/23 09:50:16;;;;;;;5.95;3.88;;;14.90;99.90;;;;;;5033565;28;20229;-63
2023/09/23 09:52:46;;;;;;;7.43;4.50;;;14.90;99.90;;;;;;5033680;28;20171;-63
2023/09/23 09:55:18;;;;;;;7.22;4.60;;;15.00;99.90;;;;;;5033527;28;20526;-63
2023/09/23 09:57:45;;;;;;;7.00;3.83;;;15.10;99.90;;;;;;5033467;28;20191;-63
2023/09/23 10:00:23;;;;;;;6.93;4.03;;;15.30;99.90;;;;;;5033637;28;20175;-63
2023/09/23 10:02:48;;;;;;;5.70;4.10;;;15.30;99.90;;;;;;5033819;28;20159;-63
2023/09/23 10:05:17;;;;;;;6.28;3.50;;;15.50;99.90;;;;;;5033521;28;20182;-63
2023/09/23 10:07:55;;;;;;;5.93;3.45;;;15.50;99.90;;;;;;5033819;28;20194;-63
2023/09/23 10:10:31;;;;;;;5.25;3.60;;;15.40;99.90;;;;;;5015667;28;20682;-63
2023/09/23 10:13:18;;;;;;;5.72;3.47;;;15.40;99.90;;;;;;5033418;28;20203;-62
2023/09/23 10:15:44;;;;;;;9.20;3.67;;;15.20;99.90;;;;;;5015786;28;20178;-62
2023/09/23 10:18:14;;;;;;;4.78;3.47;;;15.00;99.90;;;;;;5032878;28;20195;-63
2023/09/23 10:20:51;;;;;;;5.65;3.20;;;15.00;99.90;;;;;;5033346;28;20167;-63
2023/09/23 10:23:19;;;;;;;4.43;3.47;;;15.00;99.90;;;;;;5033281;28;20160;-63
2023/09/23 10:25:47;;;;;;;8.45;3.30;;;15.00;99.90;;;;;;5033329;28;20646;-63
2023/09/23 10:28:23;;;;;;;6.40;3.00;;;15.10;99.90;;;;;;5033307;28;20186;-63
2023/09/23 10:30:58;;;;;;;4.82;3.17;;;15.30;99.90;;;;;;5033422;28;20286;-63
2023/09/23 10:33:26;;;;;;;3.30;3.00;;;15.40;99.90;;;;;;5033730;28;20259;-62
2023/09/23 10:35:58;;;;;;;5.78;2.88;;;15.60;99.90;;;;;;5033459;28;20167;-62
2023/09/23 10:38:31;;;;;;;5.85;3.15;;;15.60;99.90;;;;;;5015666;28;20277;-63
2023/09/23 10:40:57;;;;;;;2.88;2.67;;;15.60;99.90;;;;;;5033278;28;20587;-63
2023/09/23 10:43:23;;;;;;;4.55;2.83;;;15.50;99.90;;;;;;5033410;28;20244;-63
2023/09/23 10:45:53;;;;;;;5.30;2.92;;;15.40;99.90;;;;;;5033282;28;20250;-63
2023/09/23 10:48:20;;;;;;;5.63;3.15;;;15.50;99.90;;;;;;5033203;28;20245;-63
2023/09/23 10:50:46;;;;;;;6.13;2.70;;;15.70;99.90;;;;;;5032996;28;20198;-63
2023/09/23 10:53:13;;;;;;;4.78;2.70;;;15.60;99.90;;;;;;5014922;28;20667;-63
2023/09/23 10:55:40;;;;;;;4.05;2.88;;;15.60;99.90;;;;;;5032969;28;20187;-63
2023/09/23 10:58:08;;;;;;;7.05;3.00;;;15.60;99.90;;;;;;5032762;28;20274;-62
2023/09/23 11:00:36;;;;;;;6.57;2.58;;;15.40;99.90;;;;;;5032926;28;20171;-62
2023/09/23 11:03:09;;;;;;;3.70;2.78;;;15.50;99.90;;;;;;5032898;28;20297;-62
2023/09/23 11:05:39;;;;;;;5.55;2.60;;;15.70;99.90;;;;;;5032869;28;20178;-62
2023/09/23 11:08:10;;;;;;;3.55;2.50;;;16.00;99.90;;;;;;5014742;28;20204;-62
2023/09/23 11:10:40;;;;;;;5.10;2.70;;;16.20;99.90;;;;;;5015027;28;20203;-63
2023/09/23 11:13:10;;;;;;;3.33;2.50;;;16.40;99.90;;;;;;5032813;28;20183;-66
2023/09/23 11:15:43;;;;;;;4.40;2.55;;;16.70;99.90;;;;;;5032757;28;20175;-62
2023/09/23 11:18:10;;;;;;;4.57;2.28;;;16.80;99.90;;;;;;5032676;28;20199;-63
2023/09/23 11:20:41;;;;;;;2.95;2.38;;;17.10;99.90;;;;;;5032733;28;20716;-63
2023/09/23 11:23:07;;;;;;;3.70;2.50;;;17.30;99.90;;;;;;5032784;28;20160;-63
2023/09/23 11:25:38;;;;;;;3.88;2.35;;;17.50;99.90;;;;;;5032982;28;20180;-64
2023/09/23 11:28:04;;;;;;;3.88;2.50;;;17.40;99.90;;;;;;5032777;28;20199;-63
2023/09/23 11:30:30;;;;;;;3.13;2.78;;;17.40;99.90;;;;;;5035232;28;20277;-63
2023/09/23 11:32:56;;;;;;;4.93;2.55;;;17.30;99.90;;;;;;5036500;28;20255;-63
2023/09/23 11:35:25;;;;;;;3.55;2.53;;;17.50;99.90;;;;;;5036541;28;20197;-63
2023/09/23 11:37:53;;;;;;;3.20;2.33;;;17.70;99.90;;;;;;5036055;28;20663;-63
2023/09/23 11:40:19;;;;;;;4.60;2.40;;;18.00;99.90;;;;;;5036014;28;20159;-63
2023/09/23 11:42:45;;;;;;;5.18;2.20;;;18.20;99.90;;;;;;5035921;28;20194;-63
2023/09/23 11:45:12;;;;;;;5.82;2.40;;;18.40;99.90;;;;;;5036029;28;20171;-63
2023/09/23 11:47:39;;;;;;;3.88;2.30;;;18.50;99.90;;;;;;5036181;28;20653;-63
2023/09/23 11:50:07;;;;;;;3.85;2.40;;;18.30;99.90;;;;;;5035768;28;20633;-63
2023/09/23 11:52:33;;;;;;;3.08;2.13;;;18.00;99.90;;;;;;5035778;28;20167;-63
2023/09/23 11:54:59;;;;;;;3.92;2.40;;;18.10;99.90;;;;;;5035287;28;20214;-63
2023/09/23 11:57:26;;;;;;;3.22;2.60;;;18.20;99.90;;;;;;5035739;28;20213;-62
2023/09/23 11:59:52;;;;;;;3.78;2.33;;;18.20;99.90;;;;;;5035515;28;20175;-62
2023/09/23 12:02:19;;;;;;;3.53;2.20;;;18.20;99.90;;;;;;5035694;28;20185;-63
2023/09/23 12:04:48;;;;;;;2.60;2.20;;;18.20;99.90;;;;;;5017775;28;20182;-63
2023/09/23 12:07:16;;;;;;;3.80;2.10;;;18.20;99.90;;;;;;5035973;28;20217;-63
2023/09/23 12:09:43;;;;;;;2.92;2.50;;;18.10;99.90;;;;;;5035139;28;20226;-63
2023/09/23 12:12:12;;;;;;;4.93;2.35;;;18.00;99.90;;;;;;5035703;28;20206;-63
2023/09/23 12:14:39;;;;;;;3.15;2.17;;;18.00;99.90;;;;;;5035750;28;20191;-63
2023/09/23 12:17:05;;;;;;;3.80;2.28;;;18.00;99.90;;;;;;5035447;28;20191;-60
2023/09/23 12:19:31;;;;;;;3.45;2.30;;;17.90;99.90;;;;;;5035315;28;20195;-60
2023/09/23 12:21:56;;;;;;;3.83;2.30;;;18.00;99.90;;;;;;5035315;28;20210;-60
2023/09/23 12:24:23;;;;;;;2.28;2.08;;;18.10;99.90;;;;;;5034855;28;20639;-60
2023/09/23 12:26:49;;;;;;;3.80;2.20;;;18.40;99.90;;;;;;5016733;28;20183;-60
2023/09/23 12:29:15;;;;;;;4.40;2.25;;;18.40;99.90;;;;;;5034453;28;20210;-60
2023/09/23 12:31:40;;;;;;;2.90;2.30;;;18.10;99.90;;;;;;5035179;28;20199;-60
2023/09/23 12:34:06;;;;;;;2.92;2.40;;;17.70;99.90;;;;;;5035021;28;20658;-61
2023/09/23 12:36:32;;;;;;;2.63;2.15;;;17.40;99.90;;;;;;5035380;28;20171;-62
2023/09/23 12:38:58;;;;;;;3.97;2.08;;;17.10;99.90;;;;;;5034653;28;20199;-62
2023/09/23 12:41:23;;;;;;;4.03;2.30;;;17.10;99.90;;;;;;5034099;28;20182;-62
2023/09/23 12:43:49;;;;;;;5.88;2.30;;;17.10;99.90;;;;;;5034818;28;20182;-62
2023/09/23 12:46:15;;;;;;;3.35;2.63;;;17.00;99.90;;;;;;5017002;28;20639;-62
2023/09/23 12:48:41;;;;;;;4.10;2.40;;;17.20;99.90;;;;;;5034746;28;20195;-62